createdAt,value
2018-11-02T00:01:05.198Z,75.60
2018-11-02T00:03:32.819Z,76.05
2018-11-02T00:06:00.503Z,76.14
2018-11-02T00:08:28.203Z,76.74
2018-11-02T00:10:55.832Z,76.43
2018-11-02T00:13:23.541Z,76.03
2018-11-02T00:15:51.245Z,77.74
2018-11-02T00:18:18.902Z,77.12
2018-11-02T00:20:46.598Z,77.28
2018-11-02T00:23:14.234Z,76.47
2018-11-02T00:25:41.944Z,75.44
2018-11-02T00:28:09.626Z,75.62
2018-11-02T00:30:37.524Z,75.75
2018-11-02T00:33:05.229Z,75.05
2018-11-02T00:35:32.915Z,75.05
2018-11-02T00:38:00.622Z,75.64
2018-11-02T00:40:28.494Z,74.88
2018-11-02T00:42:56.178Z,75.05
2018-11-02T00:45:23.860Z,75.12
2018-11-02T00:47:51.516Z,75.05
2018-11-02T00:50:19.159Z,75.81
2018-11-02T00:52:46.830Z,76.31
2018-11-02T00:55:14.551Z,75.86
2018-11-02T00:57:42.197Z,75.91
2018-11-02T01:00:12.446Z,76.04
2018-11-02T01:02:40.102Z,75.07
2018-11-02T01:05:08.406Z,75.79
2018-11-02T01:07:36.265Z,75.33
2018-11-02T01:10:04.361Z,75.87
2018-11-02T01:12:32.016Z,75.96
2018-11-02T01:14:59.662Z,75.37
2018-11-02T01:17:27.245Z,74.70
2018-11-02T01:19:54.965Z,74.98
2018-11-02T01:22:22.595Z,75.16
2018-11-02T01:24:50.268Z,75.19
2018-11-02T01:27:17.914Z,75.05
2018-11-02T01:32:19.932Z,74.78
2018-11-02T01:34:47.586Z,75.18
2018-11-02T01:37:15.278Z,74.81
2018-11-02T01:39:42.896Z,73.88
2018-11-02T01:42:10.556Z,73.66
2018-11-02T01:44:38.551Z,74.40
2018-11-02T01:47:06.645Z,74.79
2018-11-02T01:49:34.320Z,74.78
2018-11-02T01:52:08.627Z,74.73
2018-11-02T01:54:36.270Z,75.10
2018-11-02T01:57:04.001Z,74.97
2018-11-02T01:59:31.621Z,74.12
2018-11-02T02:01:59.230Z,73.80
2018-11-02T02:04:26.812Z,73.74
2018-11-02T02:06:54.466Z,72.92
2018-11-02T02:09:22.080Z,71.52
2018-11-02T02:11:49.642Z,71.76
2018-11-02T02:14:17.244Z,71.54
2018-11-02T02:16:44.962Z,70.98
2018-11-02T02:19:13.058Z,70.14
2018-11-02T02:21:40.672Z,70.49
2018-11-02T02:24:08.342Z,70.81
2018-11-02T02:26:36.029Z,70.70
2018-11-02T02:29:03.940Z,70.94
2018-11-02T02:31:31.556Z,71.39
2018-11-02T02:33:59.201Z,71.54
2018-11-02T02:36:26.874Z,70.91
2018-11-02T02:38:54.542Z,70.92
2018-11-02T02:41:22.159Z,71.81
2018-11-02T02:43:49.879Z,71.41
2018-11-02T02:46:17.521Z,71.54
2018-11-02T02:48:45.111Z,71.35
2018-11-02T02:51:12.772Z,70.77
2018-11-02T02:53:40.409Z,70.24
2018-11-02T02:56:07.980Z,71.35
2018-11-02T02:58:35.615Z,71.21
2018-11-02T03:01:03.426Z,70.84
2018-11-02T03:03:31.046Z,71.15
2018-11-02T03:05:58.659Z,70.46
2018-11-02T03:08:26.404Z,70.63
2018-11-02T03:10:54.188Z,70.79
2018-11-02T03:13:23.021Z,71.88
2018-11-02T03:15:53.593Z,72.12
2018-11-02T03:18:21.302Z,71.77
2018-11-02T03:20:48.915Z,72.08
2018-11-02T03:23:16.499Z,71.73
2018-11-02T03:25:44.172Z,71.88
2018-11-02T03:28:11.825Z,71.56
2018-11-02T03:30:39.512Z,71.83
2018-11-02T03:33:07.151Z,70.93
2018-11-02T03:35:34.786Z,70.60
2018-11-02T03:38:02.486Z,71.54
2018-11-02T03:40:30.303Z,71.78
2018-11-02T03:42:57.994Z,71.54
2018-11-02T03:45:25.694Z,72.18
2018-11-02T03:47:53.350Z,72.33
2018-11-02T03:50:21.562Z,73.16
2018-11-02T03:52:49.213Z,73.05
2018-11-02T03:55:16.876Z,72.38
2018-11-02T03:57:44.604Z,71.98
2018-11-02T04:00:12.256Z,72.91
2018-11-02T04:02:40.073Z,73.02
2018-11-02T04:05:08.761Z,72.47
2018-11-02T04:07:36.540Z,72.11
2018-11-02T04:10:04.746Z,72.76
2018-11-02T04:12:32.348Z,72.21
2018-11-02T04:14:59.958Z,72.17
2018-11-02T04:17:27.611Z,71.80
2018-11-02T04:19:55.281Z,71.87
2018-11-02T04:22:22.900Z,72.04
2018-11-02T04:24:50.554Z,72.49
2018-11-02T04:27:18.216Z,72.87
2018-11-02T04:29:45.889Z,72.32
2018-11-02T04:32:13.620Z,72.79
2018-11-02T04:34:41.283Z,72.61
2018-11-02T04:37:08.920Z,73.05
2018-11-02T04:39:36.545Z,72.86
2018-11-02T04:42:04.247Z,73.58
2018-11-02T04:44:31.972Z,73.24
2018-11-02T04:46:59.665Z,73.40
2018-11-02T04:49:27.367Z,73.39
2018-11-02T04:51:55.105Z,73.50
2018-11-02T04:54:22.752Z,73.83
2018-11-02T04:56:50.398Z,73.28
2018-11-02T04:59:18.038Z,73.61
2018-11-02T05:01:45.722Z,73.64
2018-11-02T05:04:13.366Z,73.62
2018-11-02T05:06:41.055Z,73.39
2018-11-02T05:09:08.784Z,73.96
2018-11-02T05:11:36.511Z,74.48
2018-11-02T05:14:04.542Z,74.76
2018-11-02T05:16:32.224Z,74.21
2018-11-02T05:18:59.826Z,74.26
2018-11-02T05:21:27.511Z,73.93
2018-11-02T05:23:55.122Z,73.75
2018-11-02T05:26:22.762Z,73.60
2018-11-02T05:28:50.423Z,73.63
2018-11-02T05:31:18.076Z,74.30
2018-11-02T05:33:45.729Z,74.27
2018-11-02T05:36:13.428Z,74.29
2018-11-02T05:38:41.094Z,74.33
2018-11-02T05:41:08.868Z,74.35
2018-11-02T05:43:36.597Z,74.49
2018-11-02T05:46:05.157Z,74.28
2018-11-02T05:48:32.853Z,74.55
2018-11-02T05:51:00.470Z,74.26
2018-11-02T05:53:28.162Z,73.54
2018-11-02T05:55:55.900Z,74.53
2018-11-02T05:58:23.481Z,74.54
2018-11-02T06:00:51.199Z,74.45
2018-11-02T06:03:18.879Z,74.47
2018-11-02T06:05:46.621Z,74.32
2018-11-02T06:08:14.263Z,74.81
2018-11-02T06:10:42.002Z,74.72
2018-11-02T06:13:09.718Z,74.57
2018-11-02T06:15:37.395Z,74.12
2018-11-02T06:18:05.267Z,73.92
2018-11-02T06:20:33.031Z,73.73
2018-11-02T06:23:00.660Z,73.63
2018-11-02T06:25:28.426Z,73.25
2018-11-02T06:27:56.115Z,72.48
2018-11-02T06:30:23.946Z,72.52
2018-11-02T06:32:51.724Z,72.03
2018-11-02T06:35:19.347Z,72.23
2018-11-02T06:37:47.021Z,71.98
2018-11-02T06:40:14.702Z,72.08
2018-11-02T06:42:42.590Z,71.40
2018-11-02T06:45:10.726Z,70.58
2018-11-02T06:47:38.690Z,71.17
2018-11-02T06:50:06.730Z,70.54
2018-11-02T06:52:34.491Z,70.93
2018-11-02T06:55:02.262Z,70.83
2018-11-02T06:57:29.985Z,70.71
2018-11-02T06:59:57.835Z,70.35
2018-11-02T07:02:25.263Z,70.12
2018-11-02T07:04:52.933Z,70.18
2018-11-02T07:07:20.650Z,69.61
2018-11-02T07:09:48.250Z,69.25
2018-11-02T07:12:15.993Z,69.13
2018-11-02T07:14:43.611Z,69.04
2018-11-02T07:17:11.293Z,67.97
2018-11-02T07:19:38.976Z,67.49
2018-11-02T07:22:06.539Z,66.65
2018-11-02T07:24:34.530Z,66.17
2018-11-02T07:27:02.269Z,65.72
2018-11-02T07:29:30.481Z,64.76
2018-11-02T07:31:58.283Z,64.23
2018-11-02T07:34:26.250Z,64.16
2018-11-02T07:36:54.092Z,63.70
2018-11-02T07:39:21.795Z,63.31
2018-11-02T07:41:49.482Z,63.08
2018-11-02T07:44:17.417Z,63.27
2018-11-02T07:46:45.311Z,63.06
2018-11-02T07:49:13.003Z,63.20
2018-11-02T07:51:40.720Z,62.93
2018-11-02T07:54:08.392Z,62.61
2018-11-02T07:56:36.098Z,62.55
2018-11-02T07:59:03.885Z,62.92
2018-11-02T08:01:31.609Z,62.48
2018-11-02T08:04:00.045Z,61.91
2018-11-02T08:06:27.117Z,60.82
2018-11-02T08:08:54.832Z,61.05
2018-11-02T08:11:22.876Z,60.44
2018-11-02T08:13:50.548Z,60.22
2018-11-02T08:16:18.294Z,58.69
2018-11-02T08:18:46.103Z,58.82
2018-11-02T08:21:14.065Z,58.13
2018-11-02T08:23:41.727Z,58.63
2018-11-02T08:26:09.380Z,58.82
2018-11-02T08:28:37.057Z,58.41
2018-11-02T08:31:04.959Z,59.01
2018-11-02T08:33:32.666Z,57.48
2018-11-02T08:36:00.635Z,57.31
2018-11-02T08:38:28.378Z,57.29
2018-11-02T08:40:56.126Z,57.54
2018-11-02T08:43:23.917Z,57.78
2018-11-02T08:45:51.608Z,58.34
2018-11-02T08:48:19.281Z,58.62
2018-11-02T08:50:46.928Z,58.41
2018-11-02T08:53:14.587Z,58.47
2018-11-02T08:55:42.286Z,59.52
2018-11-02T08:58:10.122Z,59.06
2018-11-02T09:00:37.569Z,57.20
2018-11-02T09:03:05.922Z,57.26
2018-11-02T09:05:33.648Z,58.22
2018-11-02T09:08:01.354Z,58.52
2018-11-02T09:10:29.069Z,57.77
2018-11-02T09:12:56.738Z,57.38
2018-11-02T09:15:24.418Z,57.11
2018-11-02T09:17:52.029Z,56.54
2018-11-02T09:20:19.666Z,56.50
2018-11-02T09:22:47.386Z,56.73
2018-11-02T09:25:15.089Z,56.67
2018-11-02T09:27:42.886Z,56.28
2018-11-02T09:30:13.736Z,55.71
2018-11-02T09:32:41.462Z,55.74
2018-11-02T09:35:09.114Z,55.28
2018-11-02T09:37:36.754Z,55.31
2018-11-02T09:40:06.721Z,55.65
2018-11-02T09:42:34.487Z,54.56
2018-11-02T09:45:02.192Z,54.53
2018-11-02T09:47:29.914Z,54.90
2018-11-02T09:49:57.688Z,54.39
2018-11-02T09:52:25.378Z,53.84
2018-11-02T09:54:53.014Z,53.87
2018-11-02T09:57:20.773Z,52.88
2018-11-02T09:59:48.472Z,53.43
2018-11-02T10:02:16.344Z,52.83
2018-11-02T10:04:44.138Z,52.56
2018-11-02T10:07:11.905Z,51.70
2018-11-02T10:09:39.696Z,50.84
2018-11-02T10:12:07.385Z,49.93
2018-11-02T10:14:35.198Z,48.34
2018-11-02T10:17:02.909Z,48.41
2018-11-02T10:19:31.003Z,47.16
2018-11-02T10:21:58.691Z,47.34
2018-11-02T10:24:26.411Z,46.21
2018-11-02T10:26:54.143Z,46.33
2018-11-02T10:29:22.007Z,46.01
2018-11-02T10:31:49.673Z,47.87
2018-11-02T10:34:17.336Z,47.12
2018-11-02T10:36:45.303Z,45.75
2018-11-02T10:39:13.955Z,45.25
2018-11-02T10:41:47.773Z,46.83
2018-11-02T10:44:18.105Z,45.62
2018-11-02T10:46:46.501Z,46.84
2018-11-02T10:49:14.837Z,45.52
2018-11-02T10:51:42.488Z,45.70
2018-11-02T10:54:10.210Z,42.85
2018-11-02T10:56:37.951Z,43.76
2018-11-02T10:59:05.570Z,45.34
2018-11-02T11:01:38.936Z,45.53
2018-11-02T11:04:07.019Z,45.10
2018-11-02T11:06:35.302Z,44.92
2018-11-02T11:09:05.192Z,43.64
2018-11-02T11:11:33.934Z,43.24
2018-11-02T11:14:01.561Z,45.47
2018-11-02T11:16:29.397Z,44.32
2018-11-02T11:18:57.125Z,44.60
2018-11-02T11:21:25.018Z,44.39
2018-11-02T11:23:52.652Z,42.92
2018-11-02T11:26:20.368Z,43.27
2018-11-02T11:28:48.066Z,41.20
2018-11-02T11:31:15.780Z,43.58
2018-11-02T11:33:43.436Z,44.27
2018-11-02T11:36:11.207Z,44.32
2018-11-02T11:38:38.968Z,42.58
2018-11-02T11:41:06.638Z,42.35
2018-11-02T11:43:34.414Z,43.64
2018-11-02T11:46:02.166Z,44.69
2018-11-02T11:48:29.951Z,43.53
2018-11-02T11:50:57.623Z,43.59
2018-11-02T11:53:25.378Z,44.22
2018-11-02T11:55:53.105Z,44.19
2018-11-02T11:58:20.914Z,44.93
2018-11-02T12:00:48.716Z,44.45
2018-11-02T12:03:16.520Z,44.87
2018-11-02T12:05:44.588Z,45.24
2018-11-02T12:08:12.232Z,45.58
2018-11-02T12:10:39.907Z,43.30
2018-11-02T12:13:07.673Z,43.42
2018-11-02T12:18:13.039Z,44.04
2018-11-02T12:20:41.150Z,42.50
2018-11-02T12:23:09.461Z,38.79
2018-11-02T12:25:37.152Z,35.74
2018-11-02T12:28:05.234Z,32.71
2018-11-02T12:30:33.048Z,28.72
2018-11-02T12:33:00.707Z,26.33
2018-11-02T12:35:28.416Z,26.05
2018-11-02T12:37:56.108Z,27.65
2018-11-02T12:40:24.234Z,27.93
2018-11-02T12:42:52.952Z,26.46
2018-11-02T12:45:21.369Z,25.57
2018-11-02T12:47:49.315Z,25.15
2018-11-02T12:50:21.024Z,25.88
2018-11-02T12:52:49.632Z,26.48
2018-11-02T12:55:17.758Z,27.82
2018-11-02T12:57:45.460Z,26.24
2018-11-02T13:00:15.639Z,26.01
2018-11-02T13:02:44.333Z,25.83
2018-11-02T13:05:12.074Z,28.30
2018-11-02T13:07:39.946Z,30.76
2018-11-02T13:10:10.634Z,31.18
2018-11-02T13:12:38.354Z,30.21
2018-11-02T13:15:08.514Z,31.23
2018-11-02T13:17:36.270Z,30.28
2018-11-02T13:20:04.736Z,29.90
2018-11-02T13:22:32.587Z,29.96
2018-11-02T13:25:00.279Z,29.39
2018-11-02T13:27:28.010Z,29.01
2018-11-02T13:29:55.752Z,30.31
2018-11-02T13:32:23.950Z,30.77
2018-11-02T13:34:51.664Z,33.07
2018-11-02T13:37:19.593Z,34.79
2018-11-02T13:39:47.182Z,36.15
2018-11-02T13:42:14.866Z,36.55
2018-11-02T13:44:42.590Z,38.02
2018-11-02T13:47:10.300Z,38.35
2018-11-02T13:49:38.002Z,38.17
2018-11-02T13:52:07.006Z,37.36
2018-11-02T13:54:35.472Z,35.70
2018-11-02T13:57:03.240Z,34.79
2018-11-02T13:59:30.989Z,32.39
2018-11-02T14:01:58.638Z,31.37
2018-11-02T14:04:26.298Z,31.90
2018-11-02T14:06:54.023Z,29.97
2018-11-02T14:09:21.731Z,28.70
2018-11-02T14:11:49.429Z,27.98
2018-11-02T14:14:17.128Z,26.57
2018-11-02T14:16:44.850Z,25.94
2018-11-02T14:19:12.551Z,25.77
2018-11-02T14:21:40.317Z,24.69
2018-11-02T14:24:07.962Z,27.66
2018-11-02T14:26:35.728Z,33.63
2018-11-02T14:29:03.487Z,35.28
2018-11-02T14:31:31.160Z,37.52
2018-11-02T14:33:58.889Z,39.47
2018-11-02T14:36:26.649Z,40.85
2018-11-02T14:38:54.362Z,42.36
2018-11-02T14:41:22.016Z,42.04
2018-11-02T14:43:49.809Z,43.03
2018-11-02T14:46:17.536Z,43.11
2018-11-02T14:48:45.225Z,43.08
2018-11-02T14:51:12.950Z,42.85
2018-11-02T14:53:40.627Z,43.23
2018-11-02T14:56:08.347Z,44.09
2018-11-02T14:58:36.183Z,44.28
2018-11-02T15:01:04.549Z,44.03
2018-11-02T15:03:32.212Z,44.87
2018-11-02T15:05:59.935Z,44.98
2018-11-02T15:08:27.589Z,45.66
2018-11-02T15:10:55.483Z,46.51
2018-11-02T15:13:23.181Z,46.96
2018-11-02T15:15:50.887Z,47.81
2018-11-02T15:18:18.602Z,48.46
2018-11-02T15:20:46.338Z,48.65
2018-11-02T15:23:14.031Z,48.57
2018-11-02T15:25:41.728Z,48.56
2018-11-02T15:28:09.391Z,49.48
2018-11-02T15:30:37.185Z,50.43
2018-11-02T15:33:05.636Z,50.61
2018-11-02T15:35:33.396Z,50.02
2018-11-02T15:38:01.049Z,51.11
2018-11-02T15:40:28.808Z,51.43
2018-11-02T15:42:56.623Z,51.78
2018-11-02T15:45:24.562Z,51.39
2018-11-02T15:47:52.361Z,51.88
2018-11-02T15:50:20.030Z,51.87
2018-11-02T15:52:47.761Z,51.32
2018-11-02T15:55:15.463Z,51.32
2018-11-02T15:57:43.113Z,51.10
2018-11-02T16:00:15.552Z,51.29
2018-11-02T16:02:44.175Z,51.66
2018-11-02T16:05:11.883Z,51.64
2018-11-02T16:07:39.846Z,51.90
2018-11-02T16:10:08.704Z,52.97
2018-11-02T16:12:36.422Z,52.82
2018-11-02T16:15:05.331Z,53.80
2018-11-02T16:17:33.047Z,53.72
2018-11-02T16:20:00.764Z,54.14
2018-11-02T16:22:28.741Z,54.57
2018-11-02T16:24:56.456Z,55.84
2018-11-02T16:27:34.900Z,56.47
2018-11-02T16:30:02.780Z,56.20
2018-11-02T16:32:30.430Z,55.72
2018-11-02T16:34:58.397Z,55.33
2018-11-02T16:37:26.806Z,56.20
2018-11-02T16:39:55.561Z,56.48
2018-11-02T16:42:23.570Z,57.00
2018-11-02T16:44:52.567Z,57.16
2018-11-02T16:47:20.342Z,56.11
2018-11-02T16:49:48.649Z,57.26
2018-11-02T16:52:16.402Z,56.96
2018-11-02T16:54:44.144Z,57.62
2018-11-02T16:57:11.804Z,58.52
2018-11-02T16:59:39.477Z,57.90
2018-11-02T17:02:07.238Z,58.47
2018-11-02T17:04:35.006Z,58.61
2018-11-02T17:07:02.633Z,59.05
2018-11-02T17:09:30.382Z,58.62
2018-11-02T17:11:58.042Z,58.05
2018-11-02T17:14:25.736Z,58.42
2018-11-02T17:16:53.432Z,58.02
2018-11-02T17:19:21.234Z,58.77
2018-11-02T17:21:49.073Z,58.49
2018-11-02T17:24:16.892Z,59.03
2018-11-02T17:26:44.475Z,59.60
2018-11-02T17:29:12.118Z,59.26
2018-11-02T17:31:39.861Z,59.36
2018-11-02T17:34:07.529Z,59.15
2018-11-02T17:36:35.262Z,58.74
2018-11-02T17:39:04.320Z,58.26
2018-11-02T17:41:32.718Z,58.44
2018-11-02T17:44:00.380Z,58.78
2018-11-02T17:46:28.058Z,58.82
2018-11-02T17:48:55.845Z,58.91
2018-11-02T17:51:23.481Z,60.63
2018-11-02T17:53:51.827Z,60.68
2018-11-02T17:56:19.524Z,61.19
2018-11-02T18:01:14.493Z,60.21
2018-11-02T18:03:42.411Z,59.75
2018-11-02T18:06:10.150Z,60.89
2018-11-02T18:08:37.919Z,60.62
2018-11-02T18:11:05.720Z,60.19
2018-11-02T18:13:33.437Z,59.89
2018-11-02T18:16:01.161Z,60.85
2018-11-02T18:18:28.862Z,60.00
2018-11-02T18:20:56.596Z,60.08
2018-11-02T18:23:24.289Z,60.33
2018-11-02T18:25:52.076Z,60.77
2018-11-02T18:28:19.825Z,61.05
2018-11-02T18:30:47.512Z,60.09
2018-11-02T18:33:15.240Z,60.44
2018-11-02T18:35:42.965Z,60.60
2018-11-02T18:38:10.642Z,61.00
2018-11-02T18:40:38.416Z,60.58
2018-11-02T18:43:06.073Z,61.32
2018-11-02T18:45:33.706Z,61.77
2018-11-02T18:48:01.463Z,61.72
2018-11-02T18:50:29.105Z,62.21
2018-11-02T18:52:56.776Z,62.28
2018-11-02T18:55:24.510Z,62.02
2018-11-02T18:57:52.265Z,62.71
2018-11-02T19:00:19.965Z,62.76
2018-11-02T19:02:47.648Z,63.31
2018-11-02T19:05:16.569Z,63.64
2018-11-02T19:07:44.519Z,63.71
2018-11-02T19:10:12.401Z,64.03
2018-11-02T19:12:40.599Z,63.59
2018-11-02T19:15:11.236Z,63.15
2018-11-02T19:17:39.082Z,62.50
2018-11-02T19:20:07.752Z,62.97
2018-11-02T19:22:35.612Z,63.24
2018-11-02T19:25:03.618Z,62.98
2018-11-02T19:27:31.403Z,63.50
2018-11-02T19:29:59.107Z,63.29
2018-11-02T19:32:27.040Z,63.79
2018-11-02T19:34:54.969Z,64.51
2018-11-02T19:37:22.478Z,65.01
2018-11-02T19:39:50.250Z,64.62
2018-11-02T19:42:18.076Z,63.35
2018-11-02T19:44:45.700Z,64.78
2018-11-02T19:47:13.486Z,64.57
2018-11-02T19:49:41.165Z,65.16
2018-11-02T19:52:08.847Z,65.88
2018-11-02T19:54:39.662Z,65.38
2018-11-02T19:57:07.330Z,65.51
2018-11-02T19:59:35.044Z,65.45
2018-11-02T20:02:02.745Z,66.21
2018-11-02T20:04:30.830Z,66.14
2018-11-02T20:06:58.595Z,65.52
2018-11-02T20:09:26.371Z,65.95
2018-11-02T20:11:54.119Z,65.37
2018-11-02T20:14:21.782Z,65.38
2018-11-02T20:16:49.556Z,65.40
2018-11-02T20:19:17.272Z,65.55
2018-11-02T20:21:44.927Z,65.57
2018-11-02T20:24:12.618Z,65.36
2018-11-02T20:26:40.267Z,65.79
2018-11-02T20:29:07.984Z,66.50
2018-11-02T20:31:35.676Z,66.37
2018-11-02T20:34:03.763Z,66.25
2018-11-02T20:36:31.409Z,65.93
2018-11-02T20:38:59.309Z,65.78
2018-11-02T20:41:27.000Z,65.60
2018-11-02T20:43:54.661Z,65.93
2018-11-02T20:46:22.384Z,66.00
2018-11-02T20:48:50.140Z,66.25
2018-11-02T20:51:17.849Z,66.39
2018-11-02T20:53:45.578Z,66.10
2018-11-02T20:56:13.269Z,66.85
2018-11-02T20:58:40.987Z,66.96
2018-11-02T21:01:09.282Z,67.01
2018-11-02T21:03:37.001Z,66.51
2018-11-02T21:06:05.011Z,66.58
2018-11-02T21:08:33.077Z,66.69
2018-11-02T21:11:00.740Z,66.79
2018-11-02T21:13:28.476Z,67.66
2018-11-02T21:15:56.162Z,67.06
2018-11-02T21:18:23.939Z,68.02
2018-11-02T21:20:52.281Z,67.68
2018-11-02T21:23:19.970Z,68.32
2018-11-02T21:25:48.044Z,67.98
2018-11-02T21:28:15.777Z,67.91
2018-11-02T21:30:43.644Z,68.21
2018-11-02T21:33:11.322Z,68.38
2018-11-02T21:35:39.154Z,68.15
2018-11-02T21:38:06.858Z,67.52
2018-11-02T21:40:34.749Z,67.56
2018-11-02T21:43:02.479Z,67.22
2018-11-02T21:45:30.139Z,67.91
2018-11-02T21:47:57.827Z,67.38
2018-11-02T21:50:25.475Z,67.52
2018-11-02T21:52:53.131Z,67.13
2018-11-02T21:55:20.937Z,67.56
2018-11-02T21:57:48.573Z,67.51
2018-11-02T22:00:17.489Z,67.43
2018-11-02T22:02:45.695Z,67.20
2018-11-02T22:05:13.749Z,67.63
2018-11-02T22:07:42.518Z,67.61
2018-11-02T22:10:11.129Z,68.04
2018-11-02T22:12:38.981Z,68.07
2018-11-02T22:15:07.909Z,67.83
2018-11-02T22:17:35.614Z,68.13
2018-11-02T22:20:03.899Z,68.35
2018-11-02T22:22:31.910Z,67.78
2018-11-02T22:24:59.523Z,67.31
2018-11-02T22:27:27.187Z,66.39
2018-11-02T22:29:54.813Z,65.92
2018-11-02T22:32:22.515Z,67.00
2018-11-02T22:34:50.147Z,67.77
2018-11-02T22:37:17.785Z,67.22
2018-11-02T22:39:45.471Z,67.39
2018-11-02T22:42:13.123Z,67.76
2018-11-02T22:44:40.733Z,68.00
2018-11-02T22:47:08.441Z,68.12
2018-11-02T22:49:36.163Z,67.64
2018-11-02T22:52:04.149Z,67.45
2018-11-02T22:54:31.830Z,67.72
2018-11-02T22:56:59.511Z,67.08
2018-11-02T22:59:27.215Z,67.38
2018-11-02T23:01:54.963Z,66.85
2018-11-02T23:04:22.696Z,67.18
2018-11-02T23:06:50.591Z,67.78
2018-11-02T23:09:18.241Z,67.67
2018-11-02T23:11:45.927Z,67.26
2018-11-02T23:14:13.758Z,67.14
2018-11-02T23:16:41.477Z,67.04
2018-11-02T23:19:09.238Z,67.02
2018-11-02T23:21:36.952Z,66.88
2018-11-02T23:24:05.262Z,66.72
2018-11-02T23:26:33.094Z,67.40
2018-11-02T23:29:00.807Z,68.02
2018-11-02T23:31:28.482Z,67.59
2018-11-02T23:33:56.168Z,67.59
2018-11-02T23:36:23.870Z,67.70
2018-11-02T23:38:51.504Z,68.59
2018-11-02T23:41:19.143Z,68.62
2018-11-02T23:43:47.034Z,68.53
2018-11-02T23:46:14.722Z,68.18
2018-11-02T23:48:42.402Z,68.69
2018-11-02T23:51:10.018Z,68.13
2018-11-02T23:53:37.677Z,67.88
2018-11-02T23:56:05.323Z,67.63
2018-11-02T23:58:33.134Z,67.92
